createdAt,value
2022-09-27T00:01:00.845Z,1.83
2022-09-27T00:03:29.338Z,2.17
2022-09-27T00:06:10.382Z,2.65
2022-09-27T00:08:38.557Z,2.00
2022-09-27T00:11:09.042Z,2.53
2022-09-27T00:13:37.217Z,2.53
2022-09-27T00:16:06.049Z,1.98
2022-09-27T00:18:35.080Z,3.10
2022-09-27T00:21:09.306Z,1.80
2022-09-27T00:23:37.728Z,1.55
2022-09-27T00:26:07.077Z,2.40
2022-09-27T00:28:35.609Z,3.40
2022-09-27T00:31:03.901Z,2.03
2022-09-27T00:33:32.024Z,2.08
2022-09-27T00:36:07.337Z,2.55
2022-09-27T00:38:35.230Z,1.48
2022-09-27T00:41:03.172Z,1.80
2022-09-27T00:43:45.230Z,1.52
2022-09-27T00:46:18.371Z,2.00
2022-09-27T00:48:47.678Z,1.60
2022-09-27T00:51:17.635Z,2.20
2022-09-27T00:53:51.543Z,4.32
2022-09-27T00:56:23.126Z,2.13
2022-09-27T00:58:56.719Z,3.10
2022-09-27T01:01:24.762Z,1.38
2022-09-27T01:03:57.687Z,3.60
2022-09-27T01:06:27.388Z,3.70
2022-09-27T01:08:55.252Z,2.95
2022-09-27T01:11:35.914Z,2.45
2022-09-27T01:14:28.727Z,4.70
2022-09-27T01:17:03.452Z,2.65
2022-09-27T01:20:01.449Z,2.25
2022-09-27T01:22:35.521Z,3.42
2022-09-27T01:25:17.159Z,4.50
2022-09-27T01:28:14.503Z,2.25
2022-09-27T01:30:48.713Z,4.32
2022-09-27T01:33:32.662Z,3.22
2022-09-27T01:36:15.675Z,2.15
2022-09-27T01:38:53.207Z,2.10
2022-09-27T01:41:32.017Z,3.38
2022-09-27T01:44:26.100Z,2.10
2022-09-27T01:47:06.744Z,2.70
2022-09-27T01:50:00.065Z,1.90
2022-09-27T01:52:33.561Z,1.88
2022-09-27T01:57:56.716Z,2.90
2022-09-27T02:00:27.132Z,4.38
2022-09-27T02:03:01.709Z,4.20
2022-09-27T02:05:41.001Z,3.30
2022-09-27T02:08:29.518Z,2.00
2022-09-27T02:11:04.347Z,3.72
2022-09-27T02:13:38.965Z,3.03
2022-09-27T02:16:37.224Z,3.80
2022-09-27T02:19:12.337Z,3.85
2022-09-27T02:21:45.985Z,5.38
2022-09-27T02:24:20.533Z,3.03
2022-09-27T02:26:58.220Z,4.03
2022-09-27T02:29:35.345Z,5.00
2022-09-27T02:32:03.777Z,3.03
2022-09-27T02:34:35.593Z,3.90
2022-09-27T02:37:03.800Z,4.80
2022-09-27T02:39:32.040Z,3.60
2022-09-27T02:42:06.496Z,5.32
2022-09-27T02:44:35.132Z,4.82
2022-09-27T02:47:22.138Z,4.32
2022-09-27T02:50:04.390Z,2.85
2022-09-27T02:53:11.816Z,5.55
2022-09-27T02:55:52.774Z,3.45
2022-09-27T02:59:03.849Z,3.92
2022-09-27T03:01:54.346Z,2.97
2022-09-27T03:04:40.427Z,4.72
2022-09-27T03:07:10.020Z,4.25
2022-09-27T03:09:48.087Z,4.43
2022-09-27T03:12:20.613Z,5.43
2022-09-27T03:14:48.539Z,3.63
2022-09-27T03:17:39.386Z,3.40
2022-09-27T03:20:25.748Z,4.38
2022-09-27T03:23:05.270Z,4.10
2022-09-27T03:25:33.589Z,4.38
2022-09-27T03:28:02.282Z,4.55
2022-09-27T03:30:30.728Z,3.80
2022-09-27T03:32:59.282Z,4.70
2022-09-27T03:35:46.919Z,3.80
2022-09-27T03:38:17.145Z,6.75
2022-09-27T03:40:45.514Z,5.65
2022-09-27T03:43:14.513Z,4.85
2022-09-27T03:45:45.775Z,3.47
2022-09-27T03:48:14.249Z,4.40
2022-09-27T03:50:42.666Z,4.00
2022-09-27T03:53:10.622Z,4.95
2022-09-27T03:55:39.819Z,3.45
2022-09-27T03:58:08.295Z,3.80
2022-09-27T04:00:37.140Z,4.18
2022-09-27T04:03:05.278Z,2.78
2022-09-27T04:05:53.492Z,2.67
2022-09-27T04:08:27.387Z,3.08
2022-09-27T04:10:56.613Z,5.63
2022-09-27T04:13:25.269Z,3.63
2022-09-27T04:15:55.995Z,3.78
2022-09-27T04:18:53.344Z,4.45
2022-09-27T04:21:42.804Z,4.13
2022-09-27T04:24:12.308Z,5.13
2022-09-27T04:26:46.963Z,4.72
2022-09-27T04:29:16.010Z,4.35
2022-09-27T04:31:50.237Z,5.10
2022-09-27T04:34:45.578Z,3.55
2022-09-27T04:37:13.918Z,3.92
2022-09-27T04:39:45.926Z,2.90
2022-09-27T04:42:15.163Z,5.65
2022-09-27T04:44:43.057Z,5.55
2022-09-27T04:47:10.969Z,3.95
2022-09-27T04:49:39.132Z,4.03
2022-09-27T04:52:06.978Z,4.45
2022-09-27T04:54:35.106Z,4.30
2022-09-27T04:57:12.205Z,4.63
2022-09-27T04:59:42.706Z,4.68
2022-09-27T05:02:11.148Z,5.28
2022-09-27T05:04:57.969Z,5.70
2022-09-27T05:07:26.112Z,4.07
2022-09-27T05:09:59.156Z,3.15
2022-09-27T05:12:27.751Z,2.90
2022-09-27T05:15:00.465Z,3.38
2022-09-27T05:17:46.386Z,3.08
2022-09-27T05:20:20.442Z,4.78
2022-09-27T05:22:58.265Z,3.92
2022-09-27T05:25:26.203Z,2.67
2022-09-27T05:27:54.050Z,2.83
2022-09-27T05:30:23.398Z,5.25
2022-09-27T05:32:55.764Z,2.88
2022-09-27T05:35:47.200Z,4.53
2022-09-27T05:38:15.248Z,2.55
2022-09-27T05:40:48.288Z,1.92
2022-09-27T05:43:16.954Z,1.90
2022-09-27T05:45:46.512Z,1.33
2022-09-27T05:48:16.725Z,1.27
2022-09-27T05:50:53.490Z,1.40
2022-09-27T05:53:21.467Z,2.38
2022-09-27T05:55:49.654Z,1.20
2022-09-27T05:58:20.625Z,1.10
2022-09-27T06:00:56.193Z,2.35
2022-09-27T06:03:52.203Z,2.35
2022-09-27T06:06:23.620Z,1.60
2022-09-27T06:08:55.854Z,2.65
2022-09-27T06:11:27.519Z,2.75
2022-09-27T06:13:55.414Z,1.08
2022-09-27T06:16:26.685Z,1.55
2022-09-27T06:18:54.924Z,1.98
2022-09-27T06:21:23.037Z,1.95
2022-09-27T06:23:57.206Z,1.77
2022-09-27T06:26:31.136Z,1.15
2022-09-27T06:29:17.584Z,2.67
2022-09-27T06:31:56.467Z,2.97
2022-09-27T06:34:37.169Z,3.88
2022-09-27T06:37:05.512Z,1.45
2022-09-27T06:39:34.920Z,1.85
2022-09-27T06:42:21.541Z,0.88
2022-09-27T06:45:06.427Z,1.48
2022-09-27T06:47:54.679Z,1.08
2022-09-27T06:50:34.639Z,1.23
2022-09-27T06:53:03.100Z,0.93
2022-09-27T06:55:30.962Z,1.50
2022-09-27T06:58:17.220Z,1.63
2022-09-27T07:01:05.279Z,2.67
2022-09-27T07:04:07.255Z,2.03
2022-09-27T07:06:49.760Z,2.33
2022-09-27T07:09:23.999Z,1.55
2022-09-27T07:11:53.409Z,5.22
2022-09-27T07:14:21.589Z,3.67
2022-09-27T07:16:50.687Z,2.45
2022-09-27T07:19:21.116Z,2.25
2022-09-27T07:21:52.569Z,1.48
2022-09-27T07:24:20.559Z,2.35
2022-09-27T07:26:48.973Z,2.47
2022-09-27T07:29:19.395Z,5.00
2022-09-27T07:31:48.762Z,1.60
2022-09-27T07:34:18.194Z,3.67
2022-09-27T07:36:47.990Z,2.05
2022-09-27T07:39:16.239Z,2.80
2022-09-27T07:41:45.185Z,1.83
2022-09-27T07:44:14.743Z,1.88
2022-09-27T07:46:55.726Z,1.63
2022-09-27T07:49:28.365Z,6.50
2022-09-27T07:52:13.900Z,1.35
2022-09-27T07:55:08.819Z,1.27
2022-09-27T07:57:50.283Z,1.05
2022-09-27T08:00:21.693Z,0.70
2022-09-27T08:02:49.607Z,0.93
2022-09-27T08:05:17.683Z,1.60
2022-09-27T08:07:46.960Z,1.25
2022-09-27T08:10:15.353Z,1.15
2022-09-27T08:12:43.274Z,0.43
2022-09-27T08:15:11.766Z,1.08
2022-09-27T08:17:39.646Z,0.95
2022-09-27T08:20:23.399Z,0.25
2022-09-27T08:23:25.277Z,0.45
2022-09-27T08:26:07.737Z,1.85
2022-09-27T08:28:57.220Z,0.47
2022-09-27T08:31:28.163Z,0.50
2022-09-27T08:33:57.950Z,0.30
2022-09-27T08:36:25.884Z,1.27
2022-09-27T08:38:59.017Z,1.05
2022-09-27T08:41:38.877Z,1.00
2022-09-27T08:44:18.740Z,1.92
2022-09-27T08:47:17.706Z,0.90
2022-09-27T08:49:51.362Z,0.55
2022-09-27T08:52:24.201Z,0.88
2022-09-27T08:54:53.952Z,2.40
2022-09-27T08:57:24.611Z,0.88
2022-09-27T09:00:05.878Z,3.50
2022-09-27T09:02:34.440Z,1.05
2022-09-27T09:05:08.617Z,0.80
2022-09-27T09:08:00.073Z,0.88
2022-09-27T09:11:03.363Z,0.45
2022-09-27T09:13:46.908Z,1.43
2022-09-27T09:16:26.109Z,1.02
2022-09-27T09:19:06.814Z,0.85
2022-09-27T09:22:08.730Z,0.73
2022-09-27T09:24:48.306Z,0.38
2022-09-27T09:27:25.795Z,1.65
2022-09-27T09:30:13.051Z,0.73
2022-09-27T09:32:56.149Z,0.80
2022-09-27T09:35:27.384Z,1.30
2022-09-27T09:37:59.697Z,0.40
2022-09-27T09:40:30.937Z,0.90
2022-09-27T09:43:03.710Z,1.40
2022-09-27T09:45:34.037Z,1.17
2022-09-27T09:48:09.917Z,0.35
2022-09-27T09:50:42.407Z,0.82
2022-09-27T09:53:16.369Z,0.70
2022-09-27T09:55:48.988Z,0.43
2022-09-27T09:58:25.209Z,0.45
2022-09-27T10:01:14.834Z,0.75
2022-09-27T10:03:43.966Z,0.65
2022-09-27T10:06:14.073Z,0.85
2022-09-27T10:08:42.646Z,0.70
2022-09-27T10:11:25.966Z,0.65
2022-09-27T10:14:13.500Z,1.40
2022-09-27T10:16:43.861Z,1.38
2022-09-27T10:19:13.045Z,0.28
2022-09-27T10:21:45.209Z,0.68
2022-09-27T10:24:18.429Z,1.80
2022-09-27T10:27:02.085Z,1.02
2022-09-27T10:29:38.028Z,2.47
2022-09-27T10:32:23.093Z,0.80
2022-09-27T10:34:52.371Z,2.22
2022-09-27T10:37:23.710Z,1.52
2022-09-27T10:40:26.734Z,1.00
2022-09-27T10:42:55.778Z,0.40
2022-09-27T10:45:33.001Z,0.60
2022-09-27T10:48:22.315Z,0.60
2022-09-27T10:50:59.891Z,2.05
2022-09-27T10:53:45.406Z,0.75
2022-09-27T10:56:25.058Z,0.85
2022-09-27T10:58:53.727Z,0.60
2022-09-27T11:01:25.104Z,3.13
2022-09-27T11:04:24.213Z,0.93
2022-09-27T11:06:52.297Z,1.58
2022-09-27T11:09:27.148Z,1.38
2022-09-27T11:12:11.179Z,1.67
2022-09-27T11:14:39.709Z,0.52
2022-09-27T11:17:17.083Z,1.10
2022-09-27T11:20:16.544Z,1.50
2022-09-27T11:23:13.023Z,0.40
2022-09-27T11:25:47.610Z,1.73
2022-09-27T11:28:25.884Z,0.88
2022-09-27T11:31:03.899Z,0.65
2022-09-27T11:33:57.456Z,0.30
2022-09-27T11:36:44.582Z,0.50
2022-09-27T11:39:20.701Z,0.70
2022-09-27T11:42:05.189Z,2.05
2022-09-27T11:45:19.886Z,0.57
2022-09-27T11:47:57.107Z,0.57
2022-09-27T11:50:55.818Z,0.68
2022-09-27T11:53:49.364Z,0.40
2022-09-27T11:56:30.683Z,0.50
2022-09-27T11:59:19.182Z,1.92
2022-09-27T12:01:55.314Z,2.00
2022-09-27T12:04:40.355Z,0.98
2022-09-27T12:07:18.689Z,0.88
2022-09-27T12:09:51.583Z,3.42
2022-09-27T12:14:54.826Z,0.85
2022-09-27T12:17:27.512Z,0.60
2022-09-27T12:20:00.868Z,1.05
2022-09-27T12:22:59.155Z,2.03
2022-09-27T12:25:52.774Z,0.45
2022-09-27T12:28:34.712Z,0.93
2022-09-27T12:31:28.652Z,0.70
2022-09-27T12:34:10.805Z,0.55
2022-09-27T12:36:45.429Z,0.40
2022-09-27T12:39:22.214Z,1.08
2022-09-27T12:42:02.233Z,1.77
2022-09-27T12:44:50.578Z,0.65
2022-09-27T12:47:48.406Z,0.75
2022-09-27T12:50:30.297Z,0.98
2022-09-27T12:53:05.434Z,0.75
2022-09-27T12:55:50.931Z,0.93
2022-09-27T12:59:01.420Z,0.90
2022-09-27T13:01:52.141Z,1.67
2022-09-27T13:04:41.565Z,1.25
2022-09-27T13:07:28.089Z,1.42
2022-09-27T13:10:17.124Z,1.58
2022-09-27T13:12:53.431Z,2.65
2022-09-27T13:15:27.811Z,0.75
2022-09-27T13:17:59.586Z,0.52
2022-09-27T13:20:55.611Z,0.90
2022-09-27T13:24:03.571Z,1.45
2022-09-27T13:26:51.024Z,1.55
2022-09-27T13:29:33.132Z,1.67
2022-09-27T13:32:20.857Z,0.85
2022-09-27T13:35:20.656Z,1.13
2022-09-27T13:37:58.974Z,1.73
2022-09-27T13:40:36.293Z,1.55
2022-09-27T13:43:48.601Z,5.75
2022-09-27T13:46:28.532Z,2.15
2022-09-27T13:49:00.266Z,1.40
2022-09-27T13:51:45.398Z,0.70
2022-09-27T13:54:39.841Z,1.95
2022-09-27T13:57:43.051Z,1.75
2022-09-27T14:00:16.114Z,1.70
2022-09-27T14:02:56.051Z,2.63
2022-09-27T14:05:31.070Z,3.03
2022-09-27T14:08:02.323Z,2.38
2022-09-27T14:10:31.848Z,3.22
2022-09-27T14:13:04.178Z,1.17
2022-09-27T14:15:34.104Z,1.75
2022-09-27T14:18:06.486Z,1.52
2022-09-27T14:20:38.748Z,2.75
2022-09-27T14:23:18.106Z,0.90
2022-09-27T14:25:47.973Z,0.50
2022-09-27T14:28:22.468Z,0.75
2022-09-27T14:31:08.259Z,1.17
2022-09-27T14:33:52.442Z,0.93
2022-09-27T14:36:49.038Z,0.40
2022-09-27T14:39:22.582Z,0.55
2022-09-27T14:41:54.248Z,0.28
2022-09-27T14:44:27.356Z,0.60
2022-09-27T14:47:10.198Z,0.77
2022-09-27T14:49:48.116Z,2.80
2022-09-27T14:52:21.436Z,1.85
2022-09-27T14:54:58.255Z,0.75
2022-09-27T14:57:28.229Z,1.75
2022-09-27T14:59:57.805Z,0.80
2022-09-27T15:02:28.114Z,1.13
2022-09-27T15:04:57.355Z,0.35
2022-09-27T15:07:25.605Z,0.50
2022-09-27T15:09:53.758Z,2.70
2022-09-27T15:12:26.313Z,0.85
2022-09-27T15:14:58.160Z,1.57
2022-09-27T15:17:26.419Z,0.50
2022-09-27T15:20:01.063Z,1.92
2022-09-27T15:22:42.320Z,0.60
2022-09-27T15:25:20.285Z,0.98
2022-09-27T15:27:53.717Z,1.77
2022-09-27T15:32:58.156Z,0.70
2022-09-27T15:35:33.301Z,0.50
2022-09-27T15:38:32.768Z,1.33
2022-09-27T15:41:09.412Z,2.05
2022-09-27T15:43:40.746Z,1.65
2022-09-27T15:46:30.525Z,2.05
2022-09-27T15:49:21.738Z,1.35
2022-09-27T15:51:52.030Z,0.50
2022-09-27T15:54:20.854Z,2.53
2022-09-27T15:56:54.510Z,2.63
2022-09-27T15:59:26.978Z,1.23
2022-09-27T16:01:58.537Z,0.82
2022-09-27T16:04:26.835Z,2.22
2022-09-27T16:06:56.243Z,0.85
2022-09-27T16:09:24.142Z,1.05
2022-09-27T16:11:52.122Z,1.80
2022-09-27T16:14:20.250Z,0.70
2022-09-27T16:16:51.248Z,1.52
2022-09-27T16:19:19.166Z,0.77
2022-09-27T16:21:48.464Z,1.40
2022-09-27T16:24:18.134Z,1.00
2022-09-27T16:26:46.014Z,7.05
2022-09-27T16:29:15.268Z,1.67
2022-09-27T16:31:44.157Z,1.30
2022-09-27T16:34:12.325Z,1.77
2022-09-27T16:36:40.825Z,1.27
2022-09-27T16:39:12.790Z,1.70
2022-09-27T16:41:43.441Z,0.68
2022-09-27T16:44:13.620Z,0.95
2022-09-27T16:46:42.417Z,1.98
2022-09-27T16:49:31.366Z,1.73
2022-09-27T16:52:01.770Z,1.65
2022-09-27T16:54:30.368Z,0.90
2022-09-27T16:57:00.372Z,2.53
2022-09-27T16:59:28.488Z,2.15
2022-09-27T17:01:57.924Z,2.30
2022-09-27T17:04:27.420Z,0.90
2022-09-27T17:06:55.335Z,2.70
2022-09-27T17:09:23.334Z,0.70
2022-09-27T17:11:52.104Z,1.35
2022-09-27T17:14:22.255Z,1.40
2022-09-27T17:16:50.904Z,2.15
2022-09-27T17:19:19.216Z,0.73
2022-09-27T17:21:47.519Z,1.58
2022-09-27T17:24:15.516Z,2.03
2022-09-27T17:26:43.874Z,2.80
2022-09-27T17:29:12.283Z,1.25
2022-09-27T17:31:42.733Z,1.13
2022-09-27T17:34:13.107Z,1.00
2022-09-27T17:36:43.155Z,1.00
2022-09-27T17:39:13.526Z,1.40
2022-09-27T17:41:41.418Z,1.08
2022-09-27T17:44:13.235Z,0.90
2022-09-27T17:46:44.158Z,1.25
2022-09-27T17:49:30.566Z,1.20
2022-09-27T17:51:58.929Z,1.08
2022-09-27T17:54:27.840Z,1.77
2022-09-27T17:56:56.223Z,0.88
2022-09-27T17:59:24.217Z,3.10
2022-09-27T18:01:53.484Z,1.83
2022-09-27T18:04:21.404Z,1.15
2022-09-27T18:06:49.326Z,0.75
2022-09-27T18:09:18.749Z,2.05
2022-09-27T18:11:46.735Z,1.40
2022-09-27T18:14:14.822Z,1.02
2022-09-27T18:16:44.016Z,1.67
2022-09-27T18:19:16.692Z,0.57
2022-09-27T18:21:45.061Z,0.63
2022-09-27T18:24:14.701Z,0.50
2022-09-27T18:26:44.049Z,0.50
2022-09-27T18:29:14.228Z,0.32
2022-09-27T18:31:47.422Z,1.50
2022-09-27T18:34:18.460Z,0.60
2022-09-27T18:36:46.880Z,1.20
2022-09-27T18:39:18.207Z,1.92
2022-09-27T18:41:48.439Z,1.85
2022-09-27T18:44:17.324Z,1.73
2022-09-27T18:46:45.351Z,0.30
2022-09-27T18:49:15.030Z,0.80
2022-09-27T18:51:46.937Z,0.35
2022-09-27T18:54:16.833Z,1.08
2022-09-27T18:56:45.351Z,0.73
2022-09-27T18:59:13.398Z,0.50
2022-09-27T19:01:45.163Z,0.40
2022-09-27T19:04:17.534Z,0.50
2022-09-27T19:06:48.625Z,0.88
2022-09-27T19:09:16.507Z,0.80
2022-09-27T19:11:44.555Z,0.70
2022-09-27T19:14:17.145Z,1.38
2022-09-27T19:16:46.938Z,0.63
2022-09-27T19:19:15.155Z,1.27
2022-09-27T19:21:43.063Z,1.27
2022-09-27T19:24:13.767Z,2.05
2022-09-27T19:26:43.266Z,1.10
2022-09-27T19:29:14.815Z,2.22
2022-09-27T19:31:43.591Z,0.95
2022-09-27T19:34:11.822Z,0.90
2022-09-27T19:36:39.757Z,0.98
2022-09-27T19:39:07.962Z,2.10
2022-09-27T19:41:37.231Z,1.08
2022-09-27T19:44:05.138Z,0.90
2022-09-27T19:46:33.220Z,0.82
2022-09-27T19:49:01.704Z,1.75
2022-09-27T19:51:30.174Z,1.13
2022-09-27T19:53:58.349Z,0.73
2022-09-27T19:56:26.409Z,1.00
2022-09-27T19:58:55.834Z,0.85
2022-09-27T20:01:25.416Z,0.70
2022-09-27T20:03:55.709Z,0.75
2022-09-27T20:06:23.598Z,0.65
2022-09-27T20:08:51.867Z,1.33
2022-09-27T20:11:20.696Z,2.50
2022-09-27T20:13:49.167Z,1.65
2022-09-27T20:16:19.637Z,0.65
2022-09-27T20:18:48.681Z,1.00
2022-09-27T20:21:17.344Z,0.60
2022-09-27T20:23:48.782Z,0.57
2022-09-27T20:26:18.705Z,0.98
2022-09-27T20:28:48.124Z,0.63
2022-09-27T20:31:20.432Z,0.82
2022-09-27T20:33:50.627Z,2.25
2022-09-27T20:36:20.279Z,0.43
2022-09-27T20:38:49.541Z,0.45
2022-09-27T20:41:20.150Z,0.45
2022-09-27T20:43:48.435Z,0.40
2022-09-27T20:46:18.048Z,0.65
2022-09-27T20:48:51.692Z,0.65
2022-09-27T20:51:19.700Z,0.32
2022-09-27T20:53:49.016Z,2.22
2022-09-27T20:56:18.420Z,1.90
2022-09-27T20:58:47.009Z,0.85
2022-09-27T21:01:15.546Z,0.95
2022-09-27T21:03:43.497Z,0.50
2022-09-27T21:06:13.808Z,0.80
2022-09-27T21:08:42.114Z,1.10
2022-09-27T21:11:12.563Z,0.60
2022-09-27T21:13:41.488Z,0.40
2022-09-27T21:16:14.257Z,0.57
2022-09-27T21:18:42.941Z,0.77
2022-09-27T21:21:14.350Z,0.30
2022-09-27T21:23:45.085Z,0.40
2022-09-27T21:26:15.047Z,0.60
2022-09-27T21:28:44.848Z,1.08
2022-09-27T21:31:18.938Z,0.85
2022-09-27T21:33:53.371Z,0.20
2022-09-27T21:36:23.783Z,0.20
2022-09-27T21:38:52.022Z,0.52
2022-09-27T21:41:20.403Z,0.50
2022-09-27T21:43:49.313Z,1.70
2022-09-27T21:46:19.104Z,0.30
2022-09-27T21:48:48.794Z,0.60
2022-09-27T21:51:19.208Z,0.20
2022-09-27T21:53:52.856Z,2.00
2022-09-27T21:56:21.377Z,0.30
2022-09-27T21:58:49.864Z,1.27
2022-09-27T22:01:19.783Z,0.30
2022-09-27T22:03:48.963Z,0.22
2022-09-27T22:06:18.638Z,0.77
2022-09-27T22:08:47.389Z,0.75
2022-09-27T22:11:19.367Z,0.30
2022-09-27T22:13:47.379Z,1.27
2022-09-27T22:16:16.724Z,0.73
2022-09-27T22:18:45.540Z,0.35
2022-09-27T22:21:15.057Z,1.15
2022-09-27T22:23:42.957Z,1.27
2022-09-27T22:26:14.923Z,0.30
2022-09-27T22:28:45.329Z,0.47
2022-09-27T22:31:15.052Z,0.57
2022-09-27T22:33:43.742Z,0.30
2022-09-27T22:36:11.546Z,0.40
2022-09-27T22:38:39.401Z,0.75
2022-09-27T22:41:07.269Z,1.10
2022-09-27T22:43:35.138Z,0.47
2022-09-27T22:46:04.567Z,1.17
2022-09-27T22:48:33.199Z,1.92
2022-09-27T22:51:01.743Z,0.60
2022-09-27T22:53:30.621Z,0.82
2022-09-27T22:56:03.787Z,2.45
2022-09-27T22:58:32.772Z,0.50
2022-09-27T23:01:00.994Z,0.73
2022-09-27T23:03:30.347Z,1.48
2022-09-27T23:06:02.931Z,1.10
2022-09-27T23:08:33.373Z,1.23
2022-09-27T23:11:05.788Z,1.95
2022-09-27T23:13:35.039Z,0.63
2022-09-27T23:16:04.169Z,0.43
2022-09-27T23:18:33.637Z,0.57
2022-09-27T23:21:03.330Z,1.25
2022-09-27T23:23:31.796Z,1.42
2022-09-27T23:26:01.007Z,1.65
2022-09-27T23:28:29.502Z,1.85
2022-09-27T23:30:57.746Z,1.08
2022-09-27T23:33:28.009Z,0.90
2022-09-27T23:35:57.830Z,2.17
2022-09-27T23:38:25.624Z,0.45
2022-09-27T23:40:53.505Z,0.50
2022-09-27T23:43:21.363Z,2.92
2022-09-27T23:45:49.213Z,0.65
2022-09-27T23:48:18.065Z,1.00
2022-09-27T23:50:45.872Z,0.52
2022-09-27T23:53:15.093Z,1.90
2022-09-27T23:55:42.963Z,0.95
2022-09-27T23:58:10.778Z,0.47
